createdAt,value
2019-02-27T00:01:49.854Z,85.50
2019-02-27T00:04:23.432Z,85.10
2019-02-27T00:06:54.710Z,85.30
2019-02-27T00:09:26.144Z,86.80
2019-02-27T00:11:57.280Z,86.30
2019-02-27T00:14:28.834Z,87.10
2019-02-27T00:17:01.187Z,86.60
2019-02-27T00:19:32.759Z,86.30
2019-02-27T00:22:04.506Z,86.40
2019-02-27T00:24:36.693Z,85.60
2019-02-27T00:27:07.921Z,86.00
2019-02-27T00:29:39.812Z,85.90
2019-02-27T00:32:10.982Z,85.30
2019-02-27T00:34:42.141Z,86.00
2019-02-27T00:37:13.277Z,86.80
2019-02-27T00:39:44.702Z,86.50
2019-02-27T00:42:19.394Z,86.20
2019-02-27T00:44:48.791Z,86.60
2019-02-27T00:47:20.194Z,86.80
2019-02-27T00:49:51.955Z,86.60
2019-02-27T00:52:23.534Z,86.80
2019-02-27T00:54:54.683Z,86.60
2019-02-27T00:57:25.845Z,86.50
2019-02-27T00:59:57.159Z,86.50
2019-02-27T01:02:28.345Z,86.40
2019-02-27T01:04:59.515Z,86.10
2019-02-27T01:07:30.859Z,85.60
2019-02-27T01:10:01.971Z,86.20
2019-02-27T01:12:35.067Z,85.60
2019-02-27T01:15:07.900Z,85.80
2019-02-27T01:17:57.566Z,86.10
2019-02-27T01:20:28.397Z,86.10
2019-02-27T01:22:59.743Z,87.60
2019-02-27T01:25:31.221Z,87.30
2019-02-27T01:28:02.448Z,88.00
2019-02-27T01:30:33.662Z,87.70
2019-02-27T01:33:05.089Z,87.50
2019-02-27T01:35:36.437Z,87.40
2019-02-27T01:38:08.523Z,87.50
2019-02-27T01:40:39.491Z,87.90
2019-02-27T01:43:10.874Z,88.10
2019-02-27T01:45:42.049Z,88.10
2019-02-27T01:48:13.119Z,88.10
2019-02-27T01:50:44.866Z,88.20
2019-02-27T01:53:17.552Z,88.10
2019-02-27T01:55:48.968Z,88.10
2019-02-27T01:58:20.173Z,88.10
2019-02-27T02:00:51.468Z,88.20
2019-02-27T02:03:23.009Z,88.00
2019-02-27T02:05:54.267Z,87.90
2019-02-27T02:08:25.344Z,87.90
2019-02-27T02:10:58.943Z,87.70
2019-02-27T02:13:48.904Z,88.10
2019-02-27T02:17:07.478Z,88.40
2019-02-27T02:20:15.015Z,88.50
2019-02-27T02:23:17.444Z,89.00
2019-02-27T02:26:10.737Z,89.10
2019-02-27T02:29:41.337Z,89.10
2019-02-27T02:32:37.794Z,89.40
2019-02-27T02:35:17.310Z,89.60
2019-02-27T02:38:16.452Z,89.50
2019-02-27T02:41:27.568Z,89.90
2019-02-27T02:44:21.023Z,90.00
2019-02-27T02:47:11.346Z,90.60
2019-02-27T02:50:19.062Z,90.40
2019-02-27T02:53:00.723Z,90.30
2019-02-27T02:56:11.656Z,90.30
2019-02-27T02:59:51.367Z,90.20
2019-02-27T03:02:40.429Z,90.00
2019-02-27T03:06:00.419Z,89.50
2019-02-27T03:08:47.671Z,88.80
2019-02-27T03:12:09.495Z,88.90
2019-02-27T03:15:31.441Z,89.50
2019-02-27T03:18:40.522Z,90.10
2019-02-27T03:21:37.860Z,89.90
2019-02-27T03:24:37.394Z,90.20
2019-02-27T03:27:46.558Z,90.30
2019-02-27T03:30:36.303Z,90.50
2019-02-27T03:33:41.134Z,90.70
2019-02-27T03:36:38.989Z,90.90
2019-02-27T03:39:40.365Z,91.30
2019-02-27T03:42:43.050Z,90.70
2019-02-27T03:46:10.246Z,90.90
2019-02-27T03:49:20.177Z,90.20
2019-02-27T03:52:36.316Z,90.00
2019-02-27T03:55:58.082Z,90.60
2019-02-27T03:59:12.374Z,90.20
2019-02-27T04:02:17.797Z,90.10
2019-02-27T04:05:41.178Z,90.10
2019-02-27T04:08:53.922Z,90.50
2019-02-27T04:11:26.726Z,90.80
2019-02-27T04:14:05.001Z,90.30
2019-02-27T04:16:33.848Z,90.60
2019-02-27T04:19:18.459Z,90.40
2019-02-27T04:21:49.676Z,90.10
2019-02-27T04:24:22.585Z,90.70
2019-02-27T04:26:53.408Z,91.40
2019-02-27T04:29:24.500Z,90.60
2019-02-27T04:31:55.637Z,90.20
2019-02-27T04:34:26.736Z,90.50
2019-02-27T04:36:58.883Z,90.70
2019-02-27T04:39:30.340Z,90.80
2019-02-27T04:42:01.694Z,91.40
2019-02-27T04:44:32.721Z,90.70
2019-02-27T04:47:03.839Z,91.00
2019-02-27T04:49:37.803Z,91.00
2019-02-27T04:52:07.558Z,90.70
2019-02-27T04:54:41.288Z,91.60
2019-02-27T04:57:12.773Z,90.70
2019-02-27T04:59:44.132Z,91.20
2019-02-27T05:02:15.387Z,90.90
2019-02-27T05:04:46.411Z,90.30
2019-02-27T05:07:20.120Z,90.70
2019-02-27T05:09:50.683Z,90.60
2019-02-27T05:12:22.499Z,91.10
2019-02-27T05:14:54.292Z,91.20
2019-02-27T05:17:25.808Z,90.60
2019-02-27T05:19:57.013Z,90.60
2019-02-27T05:22:28.676Z,90.50
2019-02-27T05:24:59.839Z,90.80
2019-02-27T05:27:30.966Z,91.00
2019-02-27T05:30:02.016Z,91.30
2019-02-27T05:32:34.053Z,92.30
2019-02-27T05:35:05.453Z,91.80
2019-02-27T05:37:39.241Z,92.30
2019-02-27T05:40:10.483Z,91.90
2019-02-27T05:42:41.540Z,92.00
2019-02-27T05:45:13.338Z,91.80
2019-02-27T05:47:45.816Z,91.80
2019-02-27T05:50:17.447Z,91.50
2019-02-27T05:52:49.690Z,91.40
2019-02-27T05:55:22.766Z,91.30
2019-02-27T05:57:53.887Z,92.40
2019-02-27T06:00:38.692Z,91.40
2019-02-27T06:03:09.781Z,91.50
2019-02-27T06:05:49.275Z,91.40
2019-02-27T06:08:13.519Z,91.20
2019-02-27T06:10:44.731Z,91.40
2019-02-27T06:13:16.451Z,91.10
2019-02-27T06:15:49.131Z,91.40
2019-02-27T06:18:22.739Z,91.40
2019-02-27T06:20:53.213Z,91.30
2019-02-27T06:23:24.387Z,91.30
2019-02-27T06:25:59.160Z,91.30
2019-02-27T06:28:28.884Z,91.30
2019-02-27T06:31:02.506Z,90.90
2019-02-27T06:33:32.984Z,91.00
2019-02-27T06:36:05.350Z,91.00
2019-02-27T06:38:38.187Z,91.20
2019-02-27T06:41:10.564Z,91.20
2019-02-27T06:43:41.836Z,91.40
2019-02-27T06:46:12.937Z,91.10
2019-02-27T06:48:44.174Z,90.90
2019-02-27T06:51:15.724Z,90.90
2019-02-27T06:53:46.742Z,90.80
2019-02-27T06:56:19.946Z,90.80
2019-02-27T06:58:51.072Z,90.90
2019-02-27T07:01:22.314Z,91.00
2019-02-27T07:03:53.428Z,91.20
2019-02-27T07:06:24.732Z,90.80
2019-02-27T07:08:55.880Z,91.30
2019-02-27T07:11:27.363Z,91.10
2019-02-27T07:13:59.646Z,91.10
2019-02-27T07:16:30.769Z,91.10
2019-02-27T07:19:01.828Z,91.50
2019-02-27T07:21:33.585Z,91.30
2019-02-27T07:24:04.720Z,91.30
2019-02-27T07:26:35.690Z,91.20
2019-02-27T07:29:06.798Z,90.90
2019-02-27T07:31:37.891Z,91.00
2019-02-27T07:34:09.286Z,90.80
2019-02-27T07:36:40.291Z,90.70
2019-02-27T07:39:11.946Z,90.70
2019-02-27T07:41:43.061Z,90.70
2019-02-27T07:44:14.234Z,90.70
2019-02-27T07:46:45.580Z,91.10
2019-02-27T07:49:16.685Z,90.90
2019-02-27T07:51:48.569Z,91.00
2019-02-27T07:54:19.804Z,91.10
2019-02-27T07:57:03.782Z,91.40
2019-02-27T07:59:37.987Z,91.30
2019-02-27T08:02:07.791Z,91.60
2019-02-27T08:04:39.252Z,91.60
2019-02-27T08:07:12.449Z,91.90
2019-02-27T08:09:43.126Z,91.90
2019-02-27T08:12:14.163Z,91.80
2019-02-27T08:14:45.376Z,91.70
2019-02-27T08:17:17.873Z,91.70
2019-02-27T08:19:52.434Z,91.80
2019-02-27T08:22:25.263Z,92.00
2019-02-27T08:24:58.811Z,91.80
2019-02-27T08:27:32.417Z,92.20
2019-02-27T08:30:03.850Z,92.00
2019-02-27T08:32:37.031Z,91.60
2019-02-27T08:35:08.295Z,92.30
2019-02-27T08:37:41.213Z,92.10
2019-02-27T08:40:13.155Z,92.00
2019-02-27T08:42:45.089Z,91.50
2019-02-27T08:45:19.636Z,92.10
2019-02-27T08:47:49.232Z,92.10
2019-02-27T08:50:21.106Z,92.00
2019-02-27T08:52:52.506Z,91.80
2019-02-27T08:55:23.600Z,91.50
2019-02-27T08:57:56.825Z,92.00
2019-02-27T09:00:27.892Z,91.60
2019-02-27T09:03:02.472Z,92.10
2019-02-27T09:05:32.120Z,92.00
2019-02-27T09:08:03.337Z,92.30
2019-02-27T09:10:34.814Z,92.00
2019-02-27T09:13:09.298Z,92.60
2019-02-27T09:15:42.290Z,92.70
2019-02-27T09:18:25.884Z,92.50
2019-02-27T09:20:57.185Z,91.90
2019-02-27T09:23:28.540Z,91.60
2019-02-27T09:26:02.541Z,91.50
2019-02-27T09:28:34.425Z,91.80
2019-02-27T09:31:05.604Z,92.90
2019-02-27T09:33:39.019Z,93.00
2019-02-27T09:36:14.772Z,91.90
2019-02-27T09:38:45.857Z,84.90
2019-02-27T09:41:18.136Z,81.60
2019-02-27T09:43:49.680Z,75.70
2019-02-27T09:46:20.852Z,74.50
2019-02-27T09:51:45.958Z,74.60
2019-02-27T09:54:17.936Z,70.00
2019-02-27T09:56:49.132Z,69.70
2019-02-27T09:59:20.416Z,73.90
2019-02-27T10:01:51.771Z,65.00
2019-02-27T10:04:25.949Z,73.10
2019-02-27T10:06:57.832Z,63.60
2019-02-27T10:09:52.524Z,63.00
2019-02-27T10:12:27.148Z,64.40
2019-02-27T10:14:56.395Z,61.40
2019-02-27T10:20:49.471Z,58.70
2019-02-27T10:23:20.628Z,57.80
2019-02-27T10:25:51.657Z,54.50
2019-02-27T10:28:22.718Z,53.10
2019-02-27T10:30:55.188Z,57.10
2019-02-27T10:33:26.618Z,52.00
2019-02-27T10:35:57.554Z,53.70
2019-02-27T10:38:28.843Z,54.90
2019-02-27T10:41:00.557Z,56.50
2019-02-27T10:43:31.965Z,50.10
2019-02-27T10:46:03.481Z,57.10
2019-02-27T10:48:34.493Z,52.30
2019-02-27T10:51:05.477Z,52.70
2019-02-27T10:53:36.786Z,53.90
2019-02-27T10:56:08.243Z,50.70
2019-02-27T10:58:39.214Z,52.90
2019-02-27T11:01:10.242Z,63.30
2019-02-27T11:03:41.177Z,54.10
2019-02-27T11:06:12.104Z,51.00
2019-02-27T11:08:43.361Z,49.20
2019-02-27T11:11:16.435Z,48.40
2019-02-27T11:13:48.466Z,49.10
2019-02-27T11:16:21.430Z,50.60
2019-02-27T11:18:53.126Z,50.80
2019-02-27T11:21:24.042Z,51.70
2019-02-27T11:23:55.477Z,48.80
2019-02-27T11:26:26.402Z,49.40
2019-02-27T11:28:57.894Z,49.50
2019-02-27T11:31:29.078Z,57.40
2019-02-27T11:34:01.163Z,49.50
2019-02-27T11:36:34.885Z,45.80
2019-02-27T11:39:08.522Z,51.00
2019-02-27T11:41:41.086Z,42.50
2019-02-27T11:44:14.337Z,49.80
2019-02-27T11:46:45.044Z,47.20
2019-02-27T11:49:15.964Z,45.70
2019-02-27T11:51:46.892Z,45.70
2019-02-27T11:54:17.836Z,47.30
2019-02-27T11:56:51.493Z,44.40
2019-02-27T11:59:21.938Z,48.40
2019-02-27T12:01:55.431Z,46.50
2019-02-27T12:04:26.620Z,44.70
2019-02-27T12:06:57.638Z,48.80
2019-02-27T12:09:29.207Z,49.80
2019-02-27T12:12:00.443Z,49.70
2019-02-27T12:14:31.672Z,51.70
2019-02-27T12:17:03.039Z,50.00
2019-02-27T12:19:35.644Z,49.70
2019-02-27T12:22:08.329Z,50.50
2019-02-27T12:24:39.267Z,50.10
2019-02-27T12:27:10.384Z,49.40
2019-02-27T12:29:42.997Z,49.00
2019-02-27T12:32:14.326Z,50.40
2019-02-27T12:34:45.273Z,55.10
2019-02-27T12:37:27.716Z,52.10
2019-02-27T12:39:49.659Z,54.40
2019-02-27T12:42:21.683Z,51.40
2019-02-27T12:44:54.559Z,47.50
2019-02-27T12:47:27.350Z,46.60
2019-02-27T12:49:58.759Z,52.00
2019-02-27T12:52:30.574Z,50.00
2019-02-27T12:55:01.943Z,50.10
2019-02-27T12:57:35.675Z,48.30
2019-02-27T13:00:08.508Z,48.00
2019-02-27T13:02:41.550Z,46.00
2019-02-27T13:05:13.885Z,46.20
2019-02-27T13:07:45.530Z,49.80
2019-02-27T13:10:18.226Z,47.20
2019-02-27T13:12:51.921Z,51.60
2019-02-27T13:15:23.379Z,48.50
2019-02-27T13:17:57.434Z,49.90
2019-02-27T13:20:28.145Z,46.70
2019-02-27T13:23:03.834Z,52.00
2019-02-27T13:25:31.766Z,55.40
2019-02-27T13:28:02.795Z,45.70
2019-02-27T13:30:33.749Z,53.40
2019-02-27T13:33:06.110Z,47.80
2019-02-27T13:35:37.448Z,54.50
2019-02-27T13:38:08.703Z,48.60
2019-02-27T13:40:39.743Z,47.50
2019-02-27T13:43:10.679Z,54.80
2019-02-27T13:45:41.678Z,48.70
2019-02-27T13:48:12.597Z,49.30
2019-02-27T13:50:43.516Z,52.40
2019-02-27T13:53:14.574Z,45.30
2019-02-27T13:55:48.165Z,45.60
2019-02-27T13:58:18.591Z,49.60
2019-02-27T14:00:53.686Z,50.90
2019-02-27T14:03:22.306Z,46.90
2019-02-27T14:05:55.385Z,52.70
2019-02-27T14:08:29.058Z,48.90
2019-02-27T14:10:59.508Z,45.60
2019-02-27T14:13:30.877Z,52.80
2019-02-27T14:16:03.344Z,47.80
2019-02-27T14:18:34.326Z,46.10
2019-02-27T14:21:05.359Z,52.60
2019-02-27T14:23:37.458Z,47.90
2019-02-27T14:26:09.188Z,43.60
2019-02-27T14:28:40.180Z,53.40
2019-02-27T14:31:13.115Z,52.00
2019-02-27T14:33:43.836Z,45.20
2019-02-27T14:36:14.849Z,48.40
2019-02-27T14:38:45.802Z,46.90
2019-02-27T14:41:17.172Z,47.40
2019-02-27T14:43:48.458Z,49.00
2019-02-27T14:46:19.391Z,57.30
2019-02-27T14:48:52.450Z,55.60
2019-02-27T14:51:24.458Z,58.10
2019-02-27T14:53:55.911Z,52.30
2019-02-27T14:56:27.067Z,49.40
2019-02-27T14:58:58.521Z,47.90
2019-02-27T15:01:29.861Z,47.70
2019-02-27T15:04:01.503Z,51.40
2019-02-27T15:06:32.603Z,51.80
2019-02-27T15:09:06.340Z,52.60
2019-02-27T15:11:38.187Z,52.40
2019-02-27T15:14:09.204Z,51.50
2019-02-27T15:16:40.586Z,45.80
2019-02-27T15:19:11.527Z,52.60
2019-02-27T15:21:43.905Z,51.00
2019-02-27T15:24:16.024Z,45.30
2019-02-27T15:26:50.434Z,46.40
2019-02-27T15:29:19.719Z,53.20
2019-02-27T15:31:54.764Z,56.00
2019-02-27T15:34:25.490Z,55.40
2019-02-27T15:36:56.814Z,63.10
2019-02-27T15:39:28.039Z,60.70
2019-02-27T15:41:59.183Z,61.40
2019-02-27T15:44:31.432Z,65.40
2019-02-27T15:47:03.510Z,61.30
2019-02-27T15:49:35.621Z,57.50
2019-02-27T15:52:07.665Z,61.30
2019-02-27T15:54:39.628Z,57.70
2019-02-27T15:57:10.594Z,62.10
2019-02-27T15:59:41.905Z,64.00
2019-02-27T16:02:13.375Z,60.60
2019-02-27T16:04:44.297Z,62.10
2019-02-27T16:07:15.360Z,57.90
2019-02-27T16:09:46.281Z,58.70
2019-02-27T16:12:17.606Z,59.60
2019-02-27T16:14:48.973Z,65.50
2019-02-27T16:17:19.986Z,59.50
2019-02-27T16:19:51.646Z,67.10
2019-02-27T16:22:22.570Z,62.70
2019-02-27T16:24:53.508Z,63.80
2019-02-27T16:27:24.438Z,56.60
2019-02-27T16:29:56.693Z,63.90
2019-02-27T16:32:28.352Z,58.20
2019-02-27T16:34:59.267Z,69.00
2019-02-27T16:37:31.510Z,67.70
2019-02-27T16:40:03.138Z,66.60
2019-02-27T16:42:36.426Z,67.70
2019-02-27T16:45:10.270Z,63.80
2019-02-27T16:47:41.410Z,64.80
2019-02-27T16:50:15.465Z,61.70
2019-02-27T16:52:47.439Z,69.20
2019-02-27T16:55:19.662Z,64.10
2019-02-27T16:57:50.665Z,70.60
2019-02-27T17:00:23.942Z,66.80
2019-02-27T17:02:56.943Z,63.70
2019-02-27T17:05:28.194Z,68.20
2019-02-27T17:08:02.219Z,73.00
2019-02-27T17:10:32.523Z,70.90
2019-02-27T17:13:03.887Z,73.10
2019-02-27T17:15:36.219Z,72.50
2019-02-27T17:18:07.637Z,71.60
2019-02-27T17:20:38.593Z,67.80
2019-02-27T17:23:10.907Z,71.80
2019-02-27T17:25:42.904Z,71.70
2019-02-27T17:28:14.662Z,68.80
2019-02-27T17:30:45.752Z,69.20
2019-02-27T17:33:16.796Z,71.60
2019-02-27T17:35:47.948Z,71.40
2019-02-27T17:38:18.875Z,70.90
2019-02-27T17:40:50.252Z,74.00
2019-02-27T17:43:22.164Z,70.70
2019-02-27T17:45:54.530Z,73.20
2019-02-27T17:48:25.946Z,71.60
2019-02-27T17:50:57.217Z,71.60
2019-02-27T17:53:28.132Z,72.50
2019-02-27T17:55:59.081Z,72.50
2019-02-27T17:58:33.579Z,71.90
2019-02-27T18:01:13.873Z,71.70
2019-02-27T18:03:45.417Z,72.40
2019-02-27T18:06:16.349Z,70.00
2019-02-27T18:08:51.580Z,64.80
2019-02-27T18:11:20.050Z,72.20
2019-02-27T18:13:51.020Z,73.10
2019-02-27T18:16:24.564Z,72.30
2019-02-27T18:18:54.914Z,71.40
2019-02-27T18:21:27.741Z,74.10
2019-02-27T18:23:59.515Z,71.10
2019-02-27T18:26:30.942Z,72.40
2019-02-27T18:29:04.287Z,69.60
2019-02-27T18:31:34.653Z,72.20
2019-02-27T18:34:06.081Z,72.30
2019-02-27T18:36:42.884Z,71.90
2019-02-27T18:39:10.647Z,72.30
2019-02-27T18:41:42.223Z,74.30
2019-02-27T18:44:13.416Z,71.80
2019-02-27T18:46:44.489Z,71.50
2019-02-27T18:49:18.546Z,72.20
2019-02-27T18:51:48.621Z,71.80
2019-02-27T18:54:22.820Z,71.70
2019-02-27T18:56:52.808Z,70.90
2019-02-27T18:59:23.810Z,66.80
2019-02-27T19:01:54.815Z,70.80
2019-02-27T19:04:25.768Z,73.00
2019-02-27T19:06:57.115Z,71.60
2019-02-27T19:09:29.327Z,70.50
2019-02-27T19:12:00.773Z,67.30
2019-02-27T19:14:32.251Z,71.10
2019-02-27T19:17:03.509Z,73.30
2019-02-27T19:19:34.467Z,73.90
2019-02-27T19:22:07.583Z,72.60
2019-02-27T19:24:39.393Z,69.40
2019-02-27T19:27:23.021Z,71.60
2019-02-27T19:29:54.241Z,72.00
2019-02-27T19:32:25.155Z,72.90
2019-02-27T19:34:56.122Z,70.40
2019-02-27T19:37:27.146Z,72.00
2019-02-27T19:39:58.521Z,73.70
2019-02-27T19:42:29.520Z,75.10
2019-02-27T19:45:04.165Z,71.30
2019-02-27T19:47:34.283Z,75.70
2019-02-27T19:50:08.598Z,76.70
2019-02-27T19:52:38.520Z,77.50
2019-02-27T19:55:10.222Z,73.70
2019-02-27T19:57:42.436Z,74.60
2019-02-27T20:00:17.176Z,76.70
2019-02-27T20:02:48.240Z,73.50
2019-02-27T20:05:19.778Z,74.40
2019-02-27T20:07:50.900Z,75.30
2019-02-27T20:10:21.978Z,73.10
2019-02-27T20:12:53.845Z,75.30
2019-02-27T20:15:26.258Z,73.40
2019-02-27T20:17:57.666Z,74.00
2019-02-27T20:20:30.082Z,76.90
2019-02-27T20:23:01.356Z,74.50
2019-02-27T20:25:33.234Z,76.30
2019-02-27T20:28:04.216Z,77.80
2019-02-27T20:30:35.622Z,79.90
2019-02-27T20:33:06.525Z,78.70
2019-02-27T20:35:37.912Z,76.70
2019-02-27T20:38:15.262Z,80.50
2019-02-27T20:43:55.304Z,81.20
2019-02-27T20:46:26.525Z,79.80
2019-02-27T20:48:57.482Z,76.50
2019-02-27T20:51:28.787Z,76.70
2019-02-27T20:53:59.691Z,78.40
2019-02-27T20:59:41.408Z,78.40
2019-02-27T21:02:35.689Z,79.20
2019-02-27T21:05:09.538Z,77.90
2019-02-27T21:07:40.669Z,77.70
2019-02-27T21:10:23.543Z,77.50
2019-02-27T21:12:54.853Z,77.90
2019-02-27T21:15:29.335Z,77.60
2019-02-27T21:17:59.193Z,77.00
2019-02-27T21:20:30.641Z,76.90
2019-02-27T21:23:01.581Z,77.00
2019-02-27T21:25:32.695Z,76.30
2019-02-27T21:28:07.636Z,77.60
2019-02-27T21:30:38.175Z,76.60
2019-02-27T21:33:11.170Z,78.90
2019-02-27T21:35:44.640Z,80.70
2019-02-27T21:38:16.608Z,80.20
2019-02-27T21:40:47.877Z,82.50
2019-02-27T21:43:18.907Z,83.30
2019-02-27T21:45:50.252Z,79.60
2019-02-27T21:48:23.552Z,79.60
2019-02-27T21:50:53.815Z,82.10
2019-02-27T21:53:26.162Z,81.40
2019-02-27T21:55:57.971Z,81.90
2019-02-27T21:58:31.864Z,80.40
2019-02-27T22:01:01.831Z,82.10
2019-02-27T22:03:35.270Z,80.80
2019-02-27T22:06:06.323Z,80.00
2019-02-27T22:08:38.890Z,79.60
2019-02-27T22:11:10.083Z,79.20
2019-02-27T22:13:42.213Z,79.40
2019-02-27T22:16:14.095Z,80.60
2019-02-27T22:18:46.998Z,80.30
2019-02-27T22:21:17.632Z,79.50
2019-02-27T22:23:49.104Z,80.00
2019-02-27T22:26:20.111Z,80.30
2019-02-27T22:28:54.432Z,78.70
2019-02-27T22:31:24.050Z,80.80
2019-02-27T22:33:56.230Z,79.90
2019-02-27T22:36:27.609Z,79.90
2019-02-27T22:39:00.198Z,81.30
2019-02-27T22:41:35.250Z,81.00
2019-02-27T22:44:06.839Z,80.90
2019-02-27T22:46:37.824Z,80.10
2019-02-27T22:49:08.832Z,80.60
2019-02-27T22:51:40.150Z,81.90
2019-02-27T22:54:11.060Z,80.70
2019-02-27T22:56:41.972Z,81.10
2019-02-27T22:59:12.912Z,82.20
2019-02-27T23:01:50.939Z,81.60
2019-02-27T23:04:22.212Z,82.30
2019-02-27T23:06:53.560Z,84.10
2019-02-27T23:09:26.484Z,83.60
2019-02-27T23:11:58.308Z,83.40
2019-02-27T23:14:29.489Z,82.90
2019-02-27T23:17:01.312Z,83.50
2019-02-27T23:19:33.152Z,83.00
2019-02-27T23:22:04.141Z,83.40
2019-02-27T23:24:35.763Z,83.40
2019-02-27T23:27:06.800Z,82.60
2019-02-27T23:29:39.900Z,83.20
2019-02-27T23:32:10.373Z,84.40
2019-02-27T23:34:41.845Z,83.80
2019-02-27T23:37:13.776Z,83.00
2019-02-27T23:39:44.678Z,84.30
2019-02-27T23:42:16.221Z,83.30
2019-02-27T23:44:47.443Z,83.70
2019-02-27T23:47:18.427Z,83.60
2019-02-27T23:49:49.319Z,82.80
2019-02-27T23:52:22.416Z,82.40
2019-02-27T23:54:56.293Z,83.30
2019-02-27T23:57:27.625Z,82.50
2019-02-27T23:59:58.535Z,84.20
